createdAt,value
2023-02-03T00:00:15.714Z,55.47
2023-02-03T00:02:42.657Z,55.16
2023-02-03T00:05:10.413Z,56.15
2023-02-03T00:07:37.537Z,55.46
2023-02-03T00:10:04.254Z,55.19
2023-02-03T00:12:30.881Z,55.17
2023-02-03T00:14:57.498Z,55.45
2023-02-03T00:17:24.130Z,55.43
2023-02-03T00:19:50.698Z,55.51
2023-02-03T00:22:17.377Z,57.05
2023-02-03T00:24:44.048Z,55.32
2023-02-03T00:27:10.609Z,55.63
2023-02-03T00:29:37.193Z,55.89
2023-02-03T00:32:04.016Z,56.13
2023-02-03T00:34:30.639Z,55.76
2023-02-03T00:36:57.227Z,57.33
2023-02-03T00:39:25.054Z,56.14
2023-02-03T00:41:51.623Z,56.27
2023-02-03T00:44:18.252Z,56.76
2023-02-03T00:46:44.930Z,56.33
2023-02-03T00:49:11.483Z,56.93
2023-02-03T00:51:38.205Z,55.63
2023-02-03T00:54:04.756Z,55.25
2023-02-03T00:56:31.295Z,56.04
2023-02-03T00:58:57.863Z,55.12
2023-02-03T01:01:24.438Z,55.85
2023-02-03T01:03:51.105Z,56.24
2023-02-03T01:06:20.750Z,55.42
2023-02-03T01:08:47.638Z,55.11
2023-02-03T01:11:15.995Z,55.58
2023-02-03T01:13:44.064Z,54.27
2023-02-03T01:16:11.228Z,54.74
2023-02-03T01:18:38.071Z,55.52
2023-02-03T01:21:09.110Z,55.39
2023-02-03T01:23:36.346Z,54.62
2023-02-03T01:26:06.659Z,54.72
2023-02-03T01:28:33.216Z,55.76
2023-02-03T01:31:10.467Z,55.45
2023-02-03T01:33:37.133Z,55.60
2023-02-03T01:36:03.830Z,56.24
2023-02-03T01:38:30.386Z,56.62
2023-02-03T01:40:56.970Z,56.48
2023-02-03T01:43:33.492Z,55.85
2023-02-03T01:46:01.210Z,54.34
2023-02-03T01:48:27.781Z,53.50
2023-02-03T01:50:54.386Z,54.70
2023-02-03T01:53:21.109Z,55.63
2023-02-03T01:55:48.455Z,55.44
2023-02-03T01:58:18.749Z,55.46
2023-02-03T02:00:45.317Z,55.97
2023-02-03T02:03:11.967Z,55.52
2023-02-03T02:06:00.340Z,55.80
2023-02-03T02:08:26.878Z,55.99
2023-02-03T02:10:53.472Z,56.65
2023-02-03T02:13:20.033Z,55.93
2023-02-03T02:16:29.594Z,56.59
2023-02-03T02:19:15.778Z,55.44
2023-02-03T02:22:00.948Z,53.44
2023-02-03T02:25:08.771Z,56.13
2023-02-03T02:27:50.122Z,54.18
2023-02-03T02:30:55.620Z,52.28
2023-02-03T02:33:27.832Z,55.09
2023-02-03T02:36:24.289Z,54.26
2023-02-03T02:38:59.326Z,55.15
2023-02-03T02:41:35.909Z,53.95
2023-02-03T02:44:13.025Z,55.23
2023-02-03T02:46:42.347Z,52.55
2023-02-03T02:49:13.307Z,55.39
2023-02-03T02:51:39.859Z,54.45
2023-02-03T02:54:08.151Z,55.15
2023-02-03T02:56:34.886Z,55.07
2023-02-03T02:59:02.247Z,53.44
2023-02-03T03:01:28.840Z,52.02
2023-02-03T03:03:55.504Z,52.06
2023-02-03T03:06:27.770Z,51.61
2023-02-03T03:09:06.016Z,52.16
2023-02-03T03:11:33.913Z,52.72
2023-02-03T03:14:00.477Z,52.30
2023-02-03T03:16:27.598Z,52.44
2023-02-03T03:19:02.731Z,52.80
2023-02-03T03:21:32.681Z,52.95
2023-02-03T03:23:59.822Z,53.62
2023-02-03T03:26:39.729Z,52.22
2023-02-03T03:29:16.410Z,52.23
2023-02-03T03:31:43.010Z,53.26
2023-02-03T03:34:09.799Z,54.93
2023-02-03T03:36:44.148Z,52.84
2023-02-03T03:39:15.337Z,52.93
2023-02-03T03:41:50.122Z,53.16
2023-02-03T03:44:16.664Z,53.28
2023-02-03T03:46:51.339Z,52.62
2023-02-03T03:49:17.990Z,53.50
2023-02-03T03:51:47.865Z,54.24
2023-02-03T03:54:19.229Z,54.65
2023-02-03T03:57:02.311Z,55.03
2023-02-03T03:59:30.747Z,55.35
2023-02-03T04:01:57.904Z,55.34
2023-02-03T04:04:24.605Z,54.80
2023-02-03T04:06:53.406Z,54.72
2023-02-03T04:09:19.980Z,54.02
2023-02-03T04:11:46.556Z,53.44
2023-02-03T04:14:13.307Z,55.23
2023-02-03T04:16:39.925Z,55.63
2023-02-03T04:19:08.453Z,55.85
2023-02-03T04:21:35.200Z,55.80
2023-02-03T04:24:01.779Z,55.41
2023-02-03T04:26:28.555Z,55.80
2023-02-03T04:28:55.099Z,55.10
2023-02-03T04:31:21.728Z,54.23
2023-02-03T04:33:48.453Z,54.99
2023-02-03T04:36:15.072Z,55.41
2023-02-03T04:38:41.689Z,56.20
2023-02-03T04:41:08.463Z,56.52
2023-02-03T04:43:35.035Z,55.22
2023-02-03T04:46:01.655Z,55.76
2023-02-03T04:48:28.254Z,56.92
2023-02-03T04:50:54.851Z,57.15
2023-02-03T04:53:21.438Z,56.00
2023-02-03T04:55:48.195Z,55.64
2023-02-03T04:58:14.784Z,56.34
2023-02-03T05:00:41.337Z,57.09
2023-02-03T05:03:07.953Z,56.70
2023-02-03T05:05:34.521Z,56.78
2023-02-03T05:08:01.107Z,56.68
2023-02-03T05:10:27.816Z,56.99
2023-02-03T05:12:54.517Z,56.81
2023-02-03T05:15:21.150Z,57.23
2023-02-03T05:17:47.704Z,57.44
2023-02-03T05:20:14.261Z,57.44
2023-02-03T05:22:40.805Z,57.60
2023-02-03T05:25:07.858Z,57.87
2023-02-03T05:27:34.441Z,57.82
2023-02-03T05:30:01.020Z,57.85
2023-02-03T05:32:27.566Z,58.01
2023-02-03T05:34:54.131Z,58.19
2023-02-03T05:37:20.677Z,58.15
2023-02-03T05:39:47.226Z,58.16
2023-02-03T05:42:13.766Z,58.43
2023-02-03T05:44:40.314Z,58.28
2023-02-03T05:47:06.867Z,58.29
2023-02-03T05:49:33.415Z,57.96
2023-02-03T05:51:59.988Z,57.98
2023-02-03T05:54:26.538Z,58.16
2023-02-03T05:56:53.113Z,58.44
2023-02-03T05:59:19.712Z,58.63
2023-02-03T06:01:46.256Z,58.72
2023-02-03T06:04:12.852Z,58.32
2023-02-03T06:06:39.469Z,58.07
2023-02-03T06:09:07.113Z,58.58
2023-02-03T06:11:33.778Z,58.56
2023-02-03T06:14:00.333Z,58.73
2023-02-03T06:16:27.193Z,59.00
2023-02-03T06:18:54.060Z,58.30
2023-02-03T06:21:21.069Z,58.69
2023-02-03T06:23:47.646Z,58.99
2023-02-03T06:26:14.216Z,58.65
2023-02-03T06:28:40.812Z,59.09
2023-02-03T06:31:07.444Z,58.70
2023-02-03T06:33:34.098Z,58.34
2023-02-03T06:36:00.677Z,59.16
2023-02-03T06:38:27.225Z,59.65
2023-02-03T06:40:53.889Z,59.11
2023-02-03T06:43:20.474Z,58.64
2023-02-03T06:45:47.034Z,58.40
2023-02-03T06:48:13.845Z,57.97
2023-02-03T06:50:40.708Z,57.99
2023-02-03T06:53:07.321Z,58.40
2023-02-03T06:55:33.875Z,57.96
2023-02-03T06:58:00.635Z,57.97
2023-02-03T07:00:27.445Z,57.86
2023-02-03T07:02:55.200Z,57.94
2023-02-03T07:05:22.297Z,58.09
2023-02-03T07:07:48.836Z,59.19
2023-02-03T07:10:15.497Z,59.04
2023-02-03T07:12:42.118Z,59.15
2023-02-03T07:15:09.205Z,58.83
2023-02-03T07:17:35.751Z,58.08
2023-02-03T07:20:02.382Z,58.43
2023-02-03T07:22:28.993Z,58.95
2023-02-03T07:24:55.727Z,59.13
2023-02-03T07:27:23.350Z,58.35
2023-02-03T07:29:49.888Z,57.97
2023-02-03T07:32:16.426Z,58.27
2023-02-03T07:34:42.957Z,58.81
2023-02-03T07:37:09.517Z,57.39
2023-02-03T07:39:36.066Z,58.11
2023-02-03T07:42:02.627Z,58.41
2023-02-03T07:44:29.193Z,58.99
2023-02-03T07:46:55.795Z,58.35
2023-02-03T07:49:22.383Z,57.69
2023-02-03T07:51:48.942Z,57.38
2023-02-03T07:54:15.487Z,57.64
2023-02-03T07:56:42.802Z,57.64
2023-02-03T07:59:09.371Z,57.56
2023-02-03T08:01:35.911Z,57.83
2023-02-03T08:04:02.524Z,58.23
2023-02-03T08:06:29.074Z,58.30
2023-02-03T08:08:55.666Z,58.87
2023-02-03T08:11:22.199Z,57.71
2023-02-03T08:13:48.755Z,58.52
2023-02-03T08:16:15.338Z,58.70
2023-02-03T08:18:41.941Z,58.48
2023-02-03T08:21:08.502Z,59.62
2023-02-03T08:23:35.069Z,59.42
2023-02-03T08:26:01.628Z,57.70
2023-02-03T08:28:28.234Z,56.27
2023-02-03T08:30:54.854Z,57.30
2023-02-03T08:33:21.513Z,57.42
2023-02-03T08:35:49.110Z,56.38
2023-02-03T08:38:15.890Z,57.07
2023-02-03T08:40:42.541Z,56.26
2023-02-03T08:43:09.151Z,56.24
2023-02-03T08:45:35.824Z,57.08
2023-02-03T08:48:02.484Z,54.56
2023-02-03T08:50:29.398Z,55.52
2023-02-03T08:52:56.237Z,55.58
2023-02-03T08:55:22.875Z,55.17
2023-02-03T08:57:49.522Z,54.73
2023-02-03T09:00:16.492Z,54.34
2023-02-03T09:02:43.145Z,54.34
2023-02-03T09:05:10.006Z,55.42
2023-02-03T09:07:36.698Z,55.63
2023-02-03T09:10:03.635Z,53.94
2023-02-03T09:12:30.332Z,52.99
2023-02-03T09:14:56.924Z,53.78
2023-02-03T09:17:23.595Z,53.87
2023-02-03T09:19:50.282Z,53.66
2023-02-03T09:22:18.781Z,53.35
2023-02-03T09:24:45.483Z,51.87
2023-02-03T09:27:12.121Z,54.10
2023-02-03T09:29:38.761Z,52.71
2023-02-03T09:32:05.498Z,52.88
2023-02-03T09:34:32.104Z,52.81
2023-02-03T09:36:58.746Z,50.59
2023-02-03T09:39:25.399Z,50.01
2023-02-03T09:42:00.136Z,52.09
2023-02-03T09:44:27.465Z,50.42
2023-02-03T09:46:59.278Z,51.04
2023-02-03T09:49:29.295Z,50.27
2023-02-03T09:51:57.820Z,51.08
2023-02-03T09:54:43.062Z,50.21
2023-02-03T09:57:15.736Z,50.26
2023-02-03T09:59:42.410Z,50.57
2023-02-03T10:02:33.620Z,50.65
2023-02-03T10:05:20.390Z,51.42
2023-02-03T10:08:48.869Z,49.72
2023-02-03T10:11:50.215Z,50.58
2023-02-03T10:15:00.931Z,49.43
2023-02-03T10:17:37.978Z,49.63
2023-02-03T10:20:18.403Z,48.94
2023-02-03T10:23:11.991Z,50.47
2023-02-03T10:25:41.482Z,49.07
2023-02-03T10:28:16.771Z,47.99
2023-02-03T10:30:46.215Z,47.88
2023-02-03T10:33:17.516Z,47.61
2023-02-03T10:35:55.761Z,47.56
2023-02-03T10:38:58.203Z,48.00
2023-02-03T10:41:24.949Z,47.63
2023-02-03T10:43:52.113Z,47.65
2023-02-03T10:46:27.790Z,47.33
2023-02-03T10:48:54.541Z,47.31
2023-02-03T10:51:23.456Z,47.60
2023-02-03T10:53:50.303Z,46.75
2023-02-03T10:56:17.076Z,46.52
2023-02-03T10:59:05.909Z,47.31
2023-02-03T11:01:39.994Z,48.02
2023-02-03T11:04:07.715Z,47.22
2023-02-03T11:06:34.396Z,48.01
2023-02-03T11:09:01.021Z,47.74
2023-02-03T11:11:31.726Z,47.22
2023-02-03T11:14:04.494Z,47.43
2023-02-03T11:16:32.874Z,46.57
2023-02-03T11:19:03.398Z,46.77
2023-02-03T11:21:39.148Z,46.58
2023-02-03T11:24:24.161Z,46.06
2023-02-03T11:27:19.968Z,46.25
2023-02-03T11:29:47.718Z,46.23
2023-02-03T11:32:27.808Z,46.81
2023-02-03T11:34:57.248Z,46.02
2023-02-03T11:37:33.404Z,46.18
2023-02-03T11:40:08.959Z,46.15
2023-02-03T11:42:36.332Z,46.17
2023-02-03T11:45:18.075Z,45.29
2023-02-03T11:47:46.806Z,45.77
2023-02-03T11:50:31.102Z,44.20
2023-02-03T11:53:10.326Z,43.38
2023-02-03T11:55:46.073Z,43.05
2023-02-03T11:58:17.391Z,42.40
2023-02-03T12:00:56.166Z,42.87
2023-02-03T12:03:44.276Z,43.42
2023-02-03T12:06:51.962Z,44.66
2023-02-03T12:09:34.269Z,45.54
2023-02-03T12:12:20.706Z,45.48
2023-02-03T12:14:49.546Z,43.94
2023-02-03T12:17:26.215Z,42.06
2023-02-03T12:20:19.075Z,41.38
2023-02-03T12:22:57.371Z,40.75
2023-02-03T12:25:59.051Z,41.13
2023-02-03T12:28:33.585Z,40.69
2023-02-03T12:31:23.632Z,41.45
2023-02-03T12:33:52.725Z,41.64
2023-02-03T12:36:22.648Z,41.11
2023-02-03T12:39:24.336Z,41.71
2023-02-03T12:42:18.151Z,40.41
2023-02-03T12:44:48.839Z,40.94
2023-02-03T12:47:26.500Z,40.30
2023-02-03T12:50:44.087Z,42.56
2023-02-03T12:53:14.595Z,43.92
2023-02-03T12:55:46.398Z,43.26
2023-02-03T12:58:58.566Z,44.61
2023-02-03T13:01:43.244Z,43.78
2023-02-03T13:04:09.771Z,45.05
2023-02-03T13:06:55.067Z,44.76
2023-02-03T13:09:28.957Z,44.58
2023-02-03T13:12:03.620Z,45.00
2023-02-03T13:14:36.647Z,45.35
2023-02-03T13:17:28.355Z,43.74
2023-02-03T13:20:00.323Z,43.77
2023-02-03T13:22:27.050Z,42.93
2023-02-03T13:25:05.084Z,42.42
2023-02-03T13:27:52.628Z,41.51
2023-02-03T13:30:50.372Z,41.26
2023-02-03T13:33:44.615Z,40.81
2023-02-03T13:36:16.978Z,40.79
2023-02-03T13:38:52.325Z,40.83
2023-02-03T13:41:26.977Z,39.99
2023-02-03T13:43:53.654Z,40.20
2023-02-03T13:46:28.552Z,39.77
2023-02-03T13:48:56.118Z,39.49
2023-02-03T13:51:24.398Z,40.41
2023-02-03T13:53:51.362Z,40.02
2023-02-03T13:56:24.567Z,39.74
2023-02-03T13:59:04.463Z,39.68
2023-02-03T14:01:38.254Z,37.77
2023-02-03T14:04:08.659Z,37.94
2023-02-03T14:06:38.294Z,37.54
2023-02-03T14:09:20.700Z,38.53
2023-02-03T14:11:51.970Z,37.96
2023-02-03T14:14:18.501Z,38.07
2023-02-03T14:16:52.668Z,39.01
2023-02-03T14:19:30.143Z,40.21
2023-02-03T14:22:01.783Z,39.00
2023-02-03T14:24:32.120Z,39.29
2023-02-03T14:26:58.848Z,38.93
2023-02-03T14:29:32.492Z,38.62
2023-02-03T14:32:12.078Z,38.31
2023-02-03T14:34:43.115Z,38.53
2023-02-03T14:37:15.707Z,38.68
2023-02-03T14:40:08.423Z,38.63
2023-02-03T14:43:11.973Z,39.06
2023-02-03T14:46:14.826Z,38.70
2023-02-03T14:49:12.122Z,39.42
2023-02-03T14:52:03.042Z,40.51
2023-02-03T14:54:54.137Z,40.07
2023-02-03T14:57:48.163Z,38.89
2023-02-03T15:00:20.789Z,38.88
2023-02-03T15:03:09.131Z,38.62
2023-02-03T15:05:39.536Z,38.99
2023-02-03T15:08:38.970Z,39.06
2023-02-03T15:11:28.591Z,38.72
2023-02-03T15:13:56.708Z,39.09
2023-02-03T15:16:24.475Z,39.21
2023-02-03T15:19:03.429Z,40.34
2023-02-03T15:21:30.091Z,41.24
2023-02-03T15:23:56.687Z,41.04
2023-02-03T15:26:24.763Z,41.20
2023-02-03T15:28:58.011Z,41.92
2023-02-03T15:31:33.428Z,40.64
2023-02-03T15:34:04.014Z,38.95
2023-02-03T15:36:45.417Z,38.70
2023-02-03T15:39:17.903Z,40.21
2023-02-03T15:41:44.497Z,39.05
2023-02-03T15:44:34.981Z,39.77
2023-02-03T15:47:02.458Z,40.23
2023-02-03T15:49:39.070Z,40.51
2023-02-03T15:52:32.062Z,42.33
2023-02-03T15:55:06.199Z,40.50
2023-02-03T15:57:33.116Z,41.28
2023-02-03T16:00:12.585Z,43.12
2023-02-03T16:02:41.959Z,44.11
2023-02-03T16:05:22.540Z,46.44
2023-02-03T16:07:49.187Z,44.63
2023-02-03T16:10:26.012Z,43.66
2023-02-03T16:12:52.687Z,44.83
2023-02-03T16:15:23.644Z,43.29
2023-02-03T16:17:55.109Z,44.26
2023-02-03T16:20:26.046Z,45.23
2023-02-03T16:23:18.089Z,45.47
2023-02-03T16:25:44.743Z,45.37
2023-02-03T16:28:16.542Z,46.20
2023-02-03T16:31:14.657Z,45.09
2023-02-03T16:33:52.635Z,44.60
2023-02-03T16:36:19.251Z,44.86
2023-02-03T16:38:46.797Z,45.56
2023-02-03T16:41:16.345Z,45.80
2023-02-03T16:43:42.996Z,47.69
2023-02-03T16:46:11.199Z,46.03
2023-02-03T16:48:37.818Z,47.12
2023-02-03T16:51:07.044Z,47.18
2023-02-03T16:53:33.765Z,47.13
2023-02-03T16:56:01.515Z,46.08
2023-02-03T16:58:28.120Z,48.56
2023-02-03T17:00:55.385Z,48.07
2023-02-03T17:03:24.097Z,48.07
2023-02-03T17:05:51.014Z,48.51
2023-02-03T17:08:19.578Z,48.87
2023-02-03T17:10:46.213Z,47.91
2023-02-03T17:13:12.798Z,47.10
2023-02-03T17:15:42.499Z,47.37
2023-02-03T17:18:09.158Z,48.01
2023-02-03T17:20:35.821Z,49.64
2023-02-03T17:23:02.614Z,50.96
2023-02-03T17:25:29.678Z,48.54
2023-02-03T17:27:56.559Z,49.17
2023-02-03T17:30:23.241Z,49.29
2023-02-03T17:32:49.853Z,49.37
2023-02-03T17:35:16.506Z,49.97
2023-02-03T17:37:43.102Z,50.01
2023-02-03T17:53:56.911Z,51.24
2023-02-03T17:56:24.361Z,50.00
2023-02-03T17:58:57.911Z,50.71
2023-02-03T18:01:24.606Z,50.60
2023-02-03T18:03:52.581Z,50.93
2023-02-03T18:06:20.144Z,50.82
2023-02-03T18:08:47.061Z,51.14
2023-02-03T18:11:13.793Z,51.46
2023-02-03T18:13:41.707Z,52.40
2023-02-03T18:16:10.165Z,53.21
2023-02-03T18:18:36.802Z,52.11
2023-02-03T18:21:06.549Z,51.63
2023-02-03T18:23:33.444Z,51.28
2023-02-03T18:26:00.093Z,51.60
2023-02-03T18:28:26.719Z,52.60
2023-02-03T18:31:03.139Z,52.25
2023-02-03T18:33:29.830Z,51.85
2023-02-03T18:36:00.096Z,52.18
2023-02-03T18:38:26.876Z,52.20
2023-02-03T18:40:53.532Z,52.21
2023-02-03T18:43:20.637Z,53.33
2023-02-03T18:45:47.282Z,52.68
2023-02-03T18:48:13.891Z,52.78
2023-02-03T18:50:41.475Z,52.51
2023-02-03T18:53:08.134Z,52.85
2023-02-03T18:55:34.767Z,52.57
2023-02-03T18:58:01.465Z,53.05
2023-02-03T19:00:28.386Z,52.92
2023-02-03T19:02:55.282Z,52.78
2023-02-03T19:05:21.949Z,52.91
2023-02-03T19:07:48.559Z,52.39
2023-02-03T19:10:15.185Z,50.75
2023-02-03T19:12:41.848Z,50.75
2023-02-03T19:15:10.386Z,49.62
2023-02-03T19:17:37.244Z,49.52
2023-02-03T19:20:04.779Z,49.17
2023-02-03T19:22:31.881Z,49.22
2023-02-03T19:24:58.600Z,48.03
2023-02-03T19:27:25.298Z,47.61
2023-02-03T19:29:51.978Z,47.27
2023-02-03T19:32:18.616Z,46.34
2023-02-03T19:34:45.240Z,46.90
2023-02-03T19:37:11.886Z,45.94
2023-02-03T19:39:38.539Z,46.02
2023-02-03T19:42:05.253Z,46.03
2023-02-03T19:44:31.889Z,45.56
2023-02-03T19:46:58.480Z,46.42
2023-02-03T19:49:25.105Z,46.19
2023-02-03T19:51:51.698Z,46.38
2023-02-03T19:54:18.326Z,46.42
2023-02-03T19:56:44.973Z,46.73
2023-02-03T19:59:11.593Z,47.05
2023-02-03T20:01:38.321Z,47.90
2023-02-03T20:04:05.061Z,48.90
2023-02-03T20:06:31.692Z,48.47
2023-02-03T20:08:58.332Z,48.43
2023-02-03T20:11:25.022Z,48.98
2023-02-03T20:13:51.774Z,49.23
2023-02-03T20:16:18.689Z,49.98
2023-02-03T20:18:45.540Z,49.01
2023-02-03T20:21:12.229Z,50.55
2023-02-03T20:23:38.865Z,49.15
2023-02-03T20:26:05.940Z,50.59
2023-02-03T20:28:32.563Z,50.63
2023-02-03T20:31:00.013Z,50.30
2023-02-03T20:33:27.878Z,50.44
2023-02-03T20:35:54.736Z,49.50
2023-02-03T20:38:21.334Z,51.51
2023-02-03T20:40:47.963Z,51.01
2023-02-03T20:43:22.178Z,49.29
2023-02-03T20:45:49.056Z,49.45
2023-02-03T20:48:16.599Z,48.74
2023-02-03T20:50:43.898Z,51.00
2023-02-03T20:53:13.065Z,48.57
2023-02-03T20:55:42.453Z,49.46
2023-02-03T20:58:28.858Z,50.90
2023-02-03T21:00:55.503Z,48.88
2023-02-03T21:03:22.152Z,50.79
2023-02-03T21:05:48.804Z,49.06
2023-02-03T21:08:19.671Z,50.17
2023-02-03T21:13:45.852Z,50.03
2023-02-03T21:16:25.443Z,50.27
2023-02-03T21:18:56.129Z,50.75
2023-02-03T21:21:39.317Z,51.06
2023-02-03T21:24:25.944Z,51.06
2023-02-03T21:26:53.157Z,49.96
2023-02-03T21:29:31.692Z,49.75
2023-02-03T21:31:58.352Z,52.62
2023-02-03T21:34:31.846Z,51.68
2023-02-03T21:37:14.068Z,51.88
2023-02-03T21:39:40.726Z,52.96
2023-02-03T21:42:28.324Z,52.37
2023-02-03T21:44:56.400Z,52.16
2023-02-03T21:47:22.988Z,52.83
2023-02-03T21:49:49.620Z,52.49
2023-02-03T21:52:16.330Z,51.46
2023-02-03T21:54:43.057Z,52.14
2023-02-03T21:57:15.236Z,53.43
2023-02-03T21:59:41.975Z,51.59
2023-02-03T22:02:46.136Z,52.05
2023-02-03T22:05:16.905Z,53.39
2023-02-03T22:07:43.694Z,52.42
2023-02-03T22:10:10.319Z,52.88
2023-02-03T22:12:36.933Z,51.96
2023-02-03T22:15:03.951Z,52.13
2023-02-03T22:17:30.539Z,52.45
2023-02-03T22:19:57.174Z,53.02
2023-02-03T22:22:24.165Z,53.48
2023-02-03T22:24:50.780Z,54.30
2023-02-03T22:27:17.389Z,55.04
2023-02-03T22:29:44.018Z,54.01
2023-02-03T22:32:10.656Z,53.00
2023-02-03T22:34:37.254Z,53.20
2023-02-03T22:37:03.891Z,52.97
2023-02-03T22:39:30.689Z,52.37
2023-02-03T22:41:57.357Z,52.95
2023-02-03T22:44:24.013Z,54.21
2023-02-03T22:46:50.626Z,53.74
2023-02-03T22:49:17.284Z,53.79
2023-02-03T22:51:43.916Z,53.49
2023-02-03T22:54:10.549Z,53.24
2023-02-03T22:56:37.153Z,52.77
2023-02-03T22:59:03.841Z,52.09
2023-02-03T23:01:31.289Z,52.39
2023-02-03T23:03:57.979Z,54.21
2023-02-03T23:06:25.607Z,53.92
2023-02-03T23:08:52.194Z,53.64
2023-02-03T23:11:18.827Z,53.90
2023-02-03T23:13:45.572Z,53.59
2023-02-03T23:16:12.247Z,53.86
2023-02-03T23:18:38.869Z,53.14
2023-02-03T23:21:05.643Z,53.72
2023-02-03T23:23:32.279Z,53.64
2023-02-03T23:25:58.968Z,53.13
2023-02-03T23:28:25.686Z,53.20
2023-02-03T23:30:52.406Z,53.45
2023-02-03T23:33:19.052Z,53.31
2023-02-03T23:35:45.808Z,52.28
2023-02-03T23:38:15.633Z,53.17
2023-02-03T23:40:42.866Z,53.26
2023-02-03T23:43:09.606Z,53.23
2023-02-03T23:45:36.262Z,53.29
2023-02-03T23:48:02.892Z,53.58
2023-02-03T23:50:29.908Z,53.66
2023-02-03T23:52:56.731Z,53.97
2023-02-03T23:55:23.550Z,54.11
2023-02-03T23:57:50.368Z,54.23
